This is the latest recevied weather packets stored in our database for station/object KY4EF. If no packets are shown the sender has not sent any weather packets the latest 10 day(s).
| Time | Temp. | Humidity | Pressure | Rain* | Wind** | Luminosity | Snow |
|---|---|---|---|---|---|---|---|
| 1778022648 | 21.11° C | 47% | 1011.5 hPa | 0 mm | - | 33 W/m² | - |
| 1778022344 | 21.11° C | 48% | 1011.6 hPa | 0 mm | - | 60 W/m² | - |
| 1778022041 | 21.11° C | 46% | 1011.7 hPa | 0 mm | - | 31 W/m² | - |
| 1778021738 | 21.11° C | 49% | 1011.8 hPa | 0 mm | - | 30 W/m² | - |
| 1778021434 | 21.67° C | 48% | 1011.7 hPa | 0 mm | - | 24 W/m² | - |
| 1778021131 | 21.67° C | 45% | 1011.8 hPa | 0 mm | - | 32 W/m² | - |
| 1778020828 | 21.67° C | 46% | 1011.8 hPa | 0 mm | - | 53 W/m² | - |
| 1778020525 | 21.67° C | 46% | 1011.7 hPa | 0 mm | - | 93 W/m² | - |
| 1778020221 | 22.22° C | 42% | 1011.8 hPa | 0 mm | - | 68 W/m² | - |
| 1778019918 | 22.22° C | 43% | 1011.7 hPa | 0 mm | - | 45 W/m² | - |
| 1778019613 | 22.22° C | 45% | 1011.7 hPa | 0 mm | - | 64 W/m² | - |
| 1778019311 | 22.22° C | 46% | 1011.7 hPa | 0 mm | - | 70 W/m² | - |
| 1778019008 | 22.78° C | 44% | 1011.7 hPa | 0 mm | - | 91 W/m² | - |
| 1778018704 | 23.33° C | 43% | 1011.8 hPa | 0 mm | - | 76 W/m² | - |
| 1778018402 | 23.33° C | 46% | 1011.7 hPa | 0 mm | - | 61 W/m² | - |
| 1778018100 | 23.33° C | 45% | 1011.8 hPa | 0 mm | - | 218 W/m² | - |
| 1778017798 | 23.89° C | 40% | 1011.7 hPa | 0 mm | - | 95 W/m² | - |
| 1778017496 | 23.89° C | 44% | 1011.7 hPa | 0 mm | - | 257 W/m² | - |
| 1778017192 | 23.33° C | 43% | 1011.8 hPa | 0 mm | - | 234 W/m² | - |
| 1778016890 | 22.78° C | 44% | 1011.7 hPa | 0 mm | - | 231 W/m² | - |
| 1778016586 | 23.33° C | 42% | 1012 hPa | 0 mm | - | 88 W/m² | - |
| 1778016283 | 23.89° C | 42% | 1011.7 hPa | 0 mm | - | 152 W/m² | - |
| 1778015979 | 25° C | 39% | 1011.6 hPa | 0 mm | - | 244 W/m² | - |
| 1778015677 | 24.44° C | 41% | 1011.7 hPa | 0 mm | - | 324 W/m² | - |
| 1778015373 | 23.89° C | 46% | 1011.6 hPa | 0 mm | - | 427 W/m² | - |
* Rain latest hour (hover to see other rain measurements)
** Current wind speed in m/s (hover to see current wind gust speed)